ASS weather

Aguascalientes Airport
Mexicali, Baja California, Mexico

Public forecast

Using degrees Celsius for public forecast. Weather courtesy of forecast.io.

METAR (pilot weather report)

Closest report is General Rodolfo Sánchez Taboada International Airport, 22.1 nm (40.9 km) NNW. Retrieved 2019/08/21 18:44 UTC (30 minutes ago):

MMML 211844Z 05002KT 10SM SKC 41/M02 A2974

TAF (pilot weather forecast)

Closest forecast is General Rodolfo Sánchez Taboada International Airport, 22.1 nm (40.9 km) NNW. Retrieved 2019/08/21 18:06 UTC (1 hour ago):

TAF MMML 211705Z 2118/2218 33010KT P6SM SKC FM220300 33005KT P6SM SKC FM221800 33010KT P6SM SKC